Time;durP1;ratioP1;P1;durP2;ratioP2;P2;SDS_P1;SDS_P2;PMS_P1;PMS_P2;Temp;Humidity;BMP_temperature;BMP_pressure;BME280_temperature;BME280_humidity;BME280_pressure;Samples;Min_cycle;Max_cycle;Signal;HPM_P1;HPM_P2
2023/11/01 00:01:06;;;;;;;4.17;2.03;;;14.30;99.90;;;;;;5018229;28;20469;-70
2023/11/01 00:03:33;;;;;;;4.23;2.20;;;14.40;99.90;;;;;;5010189;28;20508;-70
2023/11/01 00:05:59;;;;;;;2.40;2.20;;;14.30;99.90;;;;;;4992586;28;20460;-70
2023/11/01 00:08:25;;;;;;;3.20;1.93;;;14.40;99.90;;;;;;5010209;28;20631;-70
2023/11/01 00:10:51;;;;;;;2.83;1.80;;;14.40;99.90;;;;;;4985114;28;21036;-70
2023/11/01 00:13:17;;;;;;;4.50;2.57;;;14.40;99.90;;;;;;4994884;28;20492;-70
2023/11/01 00:15:43;;;;;;;3.73;2.43;;;14.30;99.90;;;;;;4986519;28;20501;-70
2023/11/01 00:18:09;;;;;;;5.17;2.13;;;14.30;99.90;;;;;;5019027;28;21292;-71
2023/11/01 00:20:35;;;;;;;2.30;2.00;;;14.30;99.90;;;;;;4996274;28;20239;-73
2023/11/01 00:23:00;;;;;;;2.30;1.80;;;14.40;99.90;;;;;;5020126;28;20463;-70
2023/11/01 00:25:26;;;;;;;4.23;2.07;;;14.30;99.90;;;;;;5019375;28;20442;-69
2023/11/01 00:27:55;;;;;;;4.70;2.30;;;14.30;99.90;;;;;;5003617;28;20718;-69
2023/11/01 00:30:21;;;;;;;3.83;2.20;;;14.30;99.90;;;;;;5003426;28;20424;-69
2023/11/01 00:32:48;;;;;;;4.23;2.40;;;14.30;99.90;;;;;;5019785;28;20937;-69
2023/11/01 00:35:17;;;;;;;4.30;2.50;;;14.40;99.90;;;;;;5003702;28;20439;-69
2023/11/01 00:37:46;;;;;;;3.00;2.80;;;14.30;99.90;;;;;;5013959;28;20419;-70
2023/11/01 00:40:12;;;;;;;4.63;2.33;;;14.30;99.90;;;;;;5005007;28;20529;-69
2023/11/01 00:42:38;;;;;;;4.23;2.27;;;14.30;99.90;;;;;;4994312;28;20600;-69
2023/11/01 00:45:08;;;;;;;4.93;2.50;;;14.30;99.90;;;;;;5019242;28;20424;-70
2023/11/01 00:47:37;;;;;;;2.50;2.17;;;14.30;99.90;;;;;;5003141;28;20451;-70
2023/11/01 00:50:05;;;;;;;2.03;1.83;;;14.30;99.90;;;;;;5002049;28;20440;-69
2023/11/01 00:52:35;;;;;;;2.33;2.13;;;14.30;99.90;;;;;;5003264;28;20459;-69
2023/11/01 00:55:04;;;;;;;3.40;2.27;;;14.30;99.90;;;;;;5020482;28;20450;-69
2023/11/01 00:57:33;;;;;;;5.87;2.20;;;14.30;99.90;;;;;;5019830;28;21249;-69
2023/11/01 00:59:59;;;;;;;4.73;2.10;;;14.30;99.90;;;;;;5019730;28;20796;-69
2023/11/01 01:02:28;;;;;;;2.80;2.50;;;14.30;99.90;;;;;;5019088;28;20872;-69
2023/11/01 01:04:54;;;;;;;2.97;2.43;;;14.30;99.90;;;;;;5002213;28;20429;-69
2023/11/01 01:07:20;;;;;;;4.30;1.90;;;14.30;99.90;;;;;;5001831;28;20505;-69
2023/11/01 01:09:48;;;;;;;2.40;2.17;;;14.30;99.90;;;;;;4998902;28;20431;-69
2023/11/01 01:12:16;;;;;;;3.23;2.93;;;14.30;99.90;;;;;;5014624;28;20470;-69
2023/11/01 01:14:44;;;;;;;6.80;2.80;;;14.30;99.90;;;;;;4983412;28;20443;-70
2023/11/01 01:17:11;;;;;;;4.53;2.37;;;14.30;99.90;;;;;;4998222;28;20886;-69
2023/11/01 01:19:39;;;;;;;2.33;2.13;;;14.30;99.90;;;;;;5019087;28;20517;-69
2023/11/01 01:22:05;;;;;;;3.30;2.17;;;14.30;99.90;;;;;;5019358;28;20451;-70
2023/11/01 01:24:31;;;;;;;3.47;2.20;;;14.30;99.90;;;;;;4986739;28;20454;-69
2023/11/01 01:26:57;;;;;;;2.37;2.17;;;14.30;99.90;;;;;;5003166;28;20446;-69
2023/11/01 01:29:23;;;;;;;3.10;2.10;;;14.30;99.90;;;;;;5012840;28;20752;-69
2023/11/01 01:31:49;;;;;;;3.23;2.40;;;14.30;99.90;;;;;;5003249;28;20572;-69
2023/11/01 01:34:15;;;;;;;4.10;2.40;;;14.30;99.90;;;;;;5019339;28;20500;-69
2023/11/01 01:36:41;;;;;;;2.87;1.87;;;14.30;99.90;;;;;;5002041;28;20518;-69
2023/11/01 01:39:10;;;;;;;2.67;2.40;;;14.30;99.90;;;;;;5019232;28;20474;-69
2023/11/01 01:41:41;;;;;;;3.63;2.17;;;14.30;99.90;;;;;;4995228;28;20474;-69
2023/11/01 01:44:07;;;;;;;2.17;1.97;;;14.30;99.90;;;;;;5013551;28;20624;-69
2023/11/01 01:46:36;;;;;;;2.27;1.90;;;14.30;99.90;;;;;;5002440;28;20443;-69
2023/11/01 01:49:03;;;;;;;6.40;2.97;;;14.30;99.90;;;;;;5003329;28;21004;-69
2023/11/01 01:51:34;;;;;;;4.70;2.00;;;14.30;99.90;;;;;;4994568;28;20547;-69
2023/11/01 01:54:01;;;;;;;2.37;2.07;;;14.30;99.90;;;;;;5008045;28;20527;-69
2023/11/01 01:56:30;;;;;;;3.03;1.77;;;14.30;99.90;;;;;;4985564;28;21127;-69
2023/11/01 01:58:56;;;;;;;2.97;1.97;;;14.30;99.90;;;;;;4979126;28;20514;-69
2023/11/01 02:01:27;;;;;;;4.80;2.17;;;14.30;99.90;;;;;;5003634;28;20475;-69
2023/11/01 02:03:56;;;;;;;5.30;2.03;;;14.30;99.90;;;;;;5013598;28;20428;-69
2023/11/01 02:06:27;;;;;;;3.90;2.20;;;14.30;99.90;;;;;;5013774;28;20429;-69
2023/11/01 02:08:53;;;;;;;3.40;2.27;;;14.30;99.90;;;;;;5006007;28;20814;-69
2023/11/01 02:11:19;;;;;;;4.53;2.57;;;14.30;99.90;;;;;;5022417;28;20460;-69
2023/11/01 02:13:45;;;;;;;2.73;2.40;;;14.30;99.90;;;;;;4996872;28;20440;-69
2023/11/01 02:16:14;;;;;;;3.37;2.20;;;14.30;99.90;;;;;;5003251;28;21274;-69
2023/11/01 02:18:43;;;;;;;2.80;2.30;;;14.30;99.90;;;;;;5023746;28;20447;-69
2023/11/01 02:21:11;;;;;;;2.30;2.10;;;14.30;99.90;;;;;;5016363;28;20488;-69
2023/11/01 02:23:43;;;;;;;3.30;2.17;;;14.30;99.90;;;;;;5004989;28;21298;-68
2023/11/01 02:26:09;;;;;;;5.17;1.93;;;14.30;99.90;;;;;;5017651;28;20431;-68
2023/11/01 02:28:37;;;;;;;3.87;2.07;;;14.30;99.90;;;;;;5023582;28;20430;-67
2023/11/01 02:31:04;;;;;;;6.50;2.50;;;14.30;99.90;;;;;;5005698;28;20455;-68
2023/11/01 02:33:33;;;;;;;6.33;2.73;;;14.30;99.90;;;;;;5012908;28;20250;-68
2023/11/01 02:35:59;;;;;;;4.57;2.50;;;14.30;99.90;;;;;;5022882;28;20438;-68
2023/11/01 02:38:25;;;;;;;2.60;1.80;;;14.30;99.90;;;;;;5022975;28;20534;-69
2023/11/01 02:40:51;;;;;;;4.00;2.50;;;14.30;99.90;;;;;;4997911;28;20466;-68
2023/11/01 02:43:20;;;;;;;2.80;2.00;;;14.30;99.90;;;;;;4997970;28;20458;-68
2023/11/01 02:45:46;;;;;;;2.57;1.80;;;14.30;99.90;;;;;;5007776;28;20863;-68
2023/11/01 02:48:14;;;;;;;3.97;2.13;;;14.30;99.90;;;;;;5014509;28;20522;-69
2023/11/01 02:50:41;;;;;;;3.53;2.37;;;14.30;99.90;;;;;;4987154;28;20438;-67
2023/11/01 02:53:08;;;;;;;2.90;1.90;;;14.30;99.90;;;;;;5069703;22;20566;-69
2023/11/01 02:55:38;;;;;;;2.43;2.20;;;14.30;99.90;;;;;;4990320;28;20420;-70
2023/11/01 02:58:05;;;;;;;3.33;2.27;;;14.30;99.90;;;;;;4991744;28;20420;-70
2023/11/01 03:00:31;;;;;;;3.97;2.33;;;14.30;99.90;;;;;;4990163;28;20471;-69
2023/11/01 03:02:58;;;;;;;4.13;2.33;;;14.30;99.90;;;;;;5008785;28;21090;-69
2023/11/01 03:05:27;;;;;;;3.77;2.47;;;14.30;99.90;;;;;;4963903;28;20426;-69
2023/11/01 03:07:58;;;;;;;2.50;2.17;;;14.30;99.90;;;;;;4973724;28;20464;-69
2023/11/01 03:10:24;;;;;;;2.60;2.30;;;14.30;99.90;;;;;;4964838;28;20855;-70
2023/11/01 03:12:52;;;;;;;3.80;2.70;;;14.30;99.90;;;;;;4962456;28;21273;-69
2023/11/01 03:15:21;;;;;;;2.80;2.30;;;14.30;99.90;;;;;;4963353;28;20461;-70
2023/11/01 03:17:47;;;;;;;3.40;2.50;;;14.30;99.90;;;;;;4978094;28;20463;-70
2023/11/01 03:20:18;;;;;;;4.50;2.53;;;14.30;99.90;;;;;;4961033;28;20480;-70
2023/11/01 03:22:47;;;;;;;3.17;2.87;;;14.30;99.90;;;;;;4969173;28;20461;-68
2023/11/01 03:25:16;;;;;;;3.30;2.47;;;14.30;99.90;;;;;;4953679;28;20422;-69
2023/11/01 03:27:45;;;;;;;2.93;2.60;;;14.30;99.90;;;;;;4988939;28;20437;-68
2023/11/01 03:30:11;;;;;;;2.97;2.40;;;14.30;99.90;;;;;;4964326;28;20472;-68
2023/11/01 03:32:40;;;;;;;3.47;2.60;;;14.30;99.90;;;;;;4964490;28;20456;-70
2023/11/01 03:35:07;;;;;;;4.60;3.10;;;14.30;99.90;;;;;;4980119;28;20885;-68
2023/11/01 03:37:33;;;;;;;3.80;2.90;;;14.30;99.90;;;;;;4954339;28;20465;-69
2023/11/01 03:39:59;;;;;;;5.03;2.53;;;14.30;99.90;;;;;;4962733;28;20513;-68
2023/11/01 03:42:28;;;;;;;3.90;2.50;;;14.30;99.90;;;;;;4985196;28;20465;-70
2023/11/01 03:44:56;;;;;;;4.90;2.83;;;14.30;99.90;;;;;;4974792;28;20428;-71
2023/11/01 03:47:23;;;;;;;3.53;2.43;;;14.30;99.90;;;;;;4979456;28;20449;-70
2023/11/01 03:49:54;;;;;;;3.30;2.50;;;14.30;99.90;;;;;;4969886;28;20483;-70
2023/11/01 03:52:22;;;;;;;3.43;2.70;;;14.20;99.90;;;;;;4976834;28;20456;-70
2023/11/01 03:54:48;;;;;;;6.40;3.07;;;14.30;99.90;;;;;;4975202;28;20446;-70
2023/11/01 03:57:14;;;;;;;2.77;2.50;;;14.30;99.90;;;;;;4965036;28;20868;-70
2023/11/01 03:59:40;;;;;;;4.80;2.67;;;14.30;99.90;;;;;;4971547;28;20472;-71
2023/11/01 04:02:08;;;;;;;4.00;3.30;;;14.30;99.90;;;;;;4967613;28;21015;-70
2023/11/01 04:04:35;;;;;;;6.20;2.80;;;14.30;99.90;;;;;;4972497;28;20218;-70
2023/11/01 04:07:01;;;;;;;3.37;3.10;;;14.30;99.90;;;;;;4980592;28;20435;-70
2023/11/01 04:09:27;;;;;;;4.90;2.80;;;14.30;99.90;;;;;;4980883;28;20924;-68
2023/11/01 04:12:00;;;;;;;3.10;2.50;;;14.30;99.90;;;;;;4966018;28;20860;-70
2023/11/01 04:14:28;;;;;;;3.53;2.60;;;14.30;99.90;;;;;;4962109;28;20958;-70
2023/11/01 04:17:00;;;;;;;3.63;2.60;;;14.30;99.90;;;;;;4968955;28;20540;-69
2023/11/01 04:19:34;;;;;;;3.40;2.67;;;14.30;99.90;;;;;;4971252;28;20698;-70
2023/11/01 04:22:02;;;;;;;5.87;2.60;;;14.30;99.90;;;;;;4973946;28;20472;-69
2023/11/01 04:24:30;;;;;;;3.73;2.30;;;14.30;99.90;;;;;;4970507;28;20721;-70
2023/11/01 04:26:58;;;;;;;4.20;2.47;;;14.30;99.90;;;;;;4975709;28;20453;-69
2023/11/01 04:29:26;;;;;;;2.77;2.47;;;14.30;99.90;;;;;;4960401;28;20440;-70
2023/11/01 04:31:53;;;;;;;2.93;2.57;;;14.30;99.90;;;;;;4968859;28;20817;-70
2023/11/01 04:34:20;;;;;;;2.80;2.50;;;14.30;99.90;;;;;;4943918;28;20437;-69
2023/11/01 04:36:50;;;;;;;3.90;2.60;;;14.30;99.90;;;;;;4960483;28;20992;-69
2023/11/01 04:39:17;;;;;;;2.60;2.27;;;14.30;99.90;;;;;;4959516;28;20452;-69
2023/11/01 04:41:43;;;;;;;2.43;2.23;;;14.30;99.90;;;;;;4958930;28;20477;-70
2023/11/01 04:44:09;;;;;;;3.10;2.10;;;14.30;99.90;;;;;;4961501;28;20521;-69
2023/11/01 04:46:38;;;;;;;5.83;2.10;;;14.30;99.90;;;;;;4974761;28;20460;-70
2023/11/01 04:49:04;;;;;;;3.20;1.97;;;14.30;99.90;;;;;;4976022;28;20434;-70
2023/11/01 04:51:33;;;;;;;3.40;2.00;;;14.30;99.90;;;;;;4959760;28;20457;-70
2023/11/01 04:54:02;;;;;;;4.33;2.10;;;14.30;99.90;;;;;;4973095;28;20436;-69
2023/11/01 04:56:30;;;;;;;3.90;2.47;;;14.30;99.90;;;;;;4961049;28;20492;-70
2023/11/01 04:59:00;;;;;;;2.77;2.47;;;14.30;99.90;;;;;;4953486;28;20475;-69
2023/11/01 05:01:33;;;;;;;2.17;1.97;;;14.30;99.90;;;;;;4961732;28;20472;-70
2023/11/01 05:04:02;;;;;;;4.10;2.20;;;14.30;99.90;;;;;;4981125;28;20497;-70
2023/11/01 05:06:30;;;;;;;3.33;2.73;;;14.20;99.90;;;;;;4967552;28;20449;-70
2023/11/01 05:08:59;;;;;;;5.00;2.53;;;14.30;99.90;;;;;;4967123;28;20602;-70
2023/11/01 05:11:30;;;;;;;3.00;2.33;;;14.30;99.90;;;;;;4969839;28;20936;-70
2023/11/01 05:13:57;;;;;;;3.10;2.50;;;14.20;99.90;;;;;;4978503;28;20427;-70
2023/11/01 05:16:25;;;;;;;3.20;2.27;;;14.20;99.90;;;;;;4978870;28;20442;-71
2023/11/01 05:18:53;;;;;;;2.83;2.47;;;14.20;99.90;;;;;;4971783;28;20487;-70
2023/11/01 05:21:19;;;;;;;5.67;2.40;;;14.20;99.90;;;;;;4978848;28;20901;-69
2023/11/01 05:23:46;;;;;;;2.90;2.30;;;14.30;99.90;;;;;;4961939;28;20549;-69
2023/11/01 05:26:18;;;;;;;4.57;2.30;;;14.30;99.90;;;;;;4960922;28;20543;-70
2023/11/01 05:28:44;;;;;;;5.03;3.03;;;14.30;99.90;;;;;;4955773;28;20535;-69
2023/11/01 05:31:13;;;;;;;4.00;2.60;;;14.20;99.90;;;;;;4958943;28;20937;-69
2023/11/01 05:33:41;;;;;;;2.30;2.07;;;14.30;99.90;;;;;;4967397;28;20449;-69
2023/11/01 05:36:09;;;;;;;2.30;2.10;;;14.30;99.90;;;;;;4944325;28;20449;-69
2023/11/01 05:38:38;;;;;;;4.90;2.00;;;14.30;99.90;;;;;;4973008;28;20444;-70
2023/11/01 05:41:08;;;;;;;2.60;1.77;;;14.20;99.90;;;;;;4962082;28;20474;-70
2023/11/01 05:43:37;;;;;;;2.20;1.90;;;14.30;99.90;;;;;;4960964;28;20443;-69
2023/11/01 05:46:05;;;;;;;5.20;2.50;;;14.20;99.90;;;;;;4977254;28;20511;-70
2023/11/01 05:48:32;;;;;;;2.07;1.87;;;14.20;99.90;;;;;;4974858;28;20426;-70
2023/11/01 05:50:59;;;;;;;1.83;1.60;;;14.30;99.90;;;;;;4966033;28;20425;-69
2023/11/01 05:53:28;;;;;;;2.20;2.00;;;14.30;99.90;;;;;;4965722;28;20440;-69
2023/11/01 05:55:54;;;;;;;2.53;1.60;;;14.20;99.90;;;;;;4953567;28;21246;-69
2023/11/01 05:58:21;;;;;;;2.17;1.97;;;14.30;99.90;;;;;;4964364;28;20433;-69
2023/11/01 06:00:50;;;;;;;1.90;1.80;;;14.30;99.90;;;;;;4966338;28;20478;-69
2023/11/01 06:03:19;;;;;;;3.90;2.20;;;14.30;99.90;;;;;;4975349;28;21050;-70
2023/11/01 06:05:48;;;;;;;1.87;1.77;;;14.30;99.90;;;;;;4978997;28;20450;-69
2023/11/01 06:08:16;;;;;;;3.60;2.00;;;14.30;99.90;;;;;;4980355;28;20449;-69
2023/11/01 06:10:43;;;;;;;2.20;2.00;;;14.20;99.90;;;;;;4979420;28;20429;-69
2023/11/01 06:13:09;;;;;;;3.30;2.47;;;14.20;99.90;;;;;;4954242;28;20457;-70
2023/11/01 06:15:36;;;;;;;2.17;1.97;;;14.30;99.90;;;;;;4982678;28;20446;-69
2023/11/01 06:18:05;;;;;;;3.27;1.90;;;14.30;99.90;;;;;;4998621;28;20435;-70
2023/11/01 06:20:37;;;;;;;3.77;2.27;;;14.30;99.90;;;;;;4968544;28;20524;-70
2023/11/01 06:23:07;;;;;;;4.33;2.07;;;14.30;99.90;;;;;;4966597;28;20460;-69
2023/11/01 06:25:37;;;;;;;1.83;1.73;;;14.30;99.90;;;;;;4931498;28;20429;-69
2023/11/01 06:28:03;;;;;;;2.07;1.87;;;14.30;99.90;;;;;;4982294;28;20428;-69
2023/11/01 06:30:29;;;;;;;3.00;1.93;;;14.30;99.90;;;;;;4970884;28;20432;-70
2023/11/01 06:32:58;;;;;;;2.00;1.90;;;14.30;99.90;;;;;;4982260;28;20476;-69
2023/11/01 06:35:24;;;;;;;3.40;2.30;;;14.20;99.90;;;;;;4964545;28;20877;-70
2023/11/01 06:37:52;;;;;;;2.00;1.80;;;14.30;99.90;;;;;;4976189;28;20472;-69
2023/11/01 06:40:22;;;;;;;3.57;1.77;;;14.30;99.90;;;;;;4969793;28;20483;-69
2023/11/01 06:42:48;;;;;;;1.80;1.70;;;14.30;99.90;;;;;;4969210;28;20473;-69
2023/11/01 06:45:14;;;;;;;1.83;1.73;;;14.30;99.90;;;;;;4971505;28;20421;-69
2023/11/01 06:47:40;;;;;;;4.43;2.60;;;14.20;99.90;;;;;;4979872;28;20455;-69
2023/11/01 06:50:11;;;;;;;2.00;1.80;;;14.30;99.90;;;;;;4965742;28;20450;-70
2023/11/01 06:52:37;;;;;;;3.73;1.67;;;14.30;99.90;;;;;;5004197;28;20764;-69
2023/11/01 06:55:05;;;;;;;4.23;1.90;;;14.30;99.90;;;;;;4966743;28;20541;-70
2023/11/01 06:57:34;;;;;;;1.97;1.80;;;14.30;99.90;;;;;;4968278;28;20453;-69
2023/11/01 07:00:00;;;;;;;2.37;2.17;;;14.20;99.90;;;;;;4975393;28;20469;-69
2023/11/01 07:02:26;;;;;;;2.60;1.90;;;14.20;99.90;;;;;;4979319;28;20467;-69
2023/11/01 07:04:54;;;;;;;2.83;2.03;;;14.20;99.90;;;;;;4972811;28;21094;-69
2023/11/01 07:07:22;;;;;;;2.03;1.83;;;14.30;99.90;;;;;;4971970;28;20449;-69
2023/11/01 07:09:48;;;;;;;2.30;1.80;;;14.30;99.90;;;;;;4980310;28;20457;-69
2023/11/01 07:12:16;;;;;;;2.83;1.93;;;14.20;99.90;;;;;;4972074;28;20862;-70
2023/11/01 07:14:44;;;;;;;2.30;2.10;;;14.30;99.90;;;;;;4971599;28;20435;-69
2023/11/01 07:17:10;;;;;;;2.70;1.70;;;14.20;99.90;;;;;;4980604;28;20479;-69
2023/11/01 07:19:36;;;;;;;8.90;2.50;;;14.20;99.90;;;;;;4969200;28;20449;-69
2023/11/01 07:22:05;;;;;;;1.87;1.70;;;14.30;99.90;;;;;;4974798;28;20528;-70
2023/11/01 07:24:31;;;;;;;2.50;2.17;;;14.30;99.90;;;;;;4980496;28;20476;-69
2023/11/01 07:27:00;;;;;;;3.70;2.00;;;14.30;99.90;;;;;;4958361;28;21294;-69
2023/11/01 07:29:26;;;;;;;2.20;1.80;;;14.20;99.90;;;;;;4966055;28;20453;-69
2023/11/01 07:31:56;;;;;;;2.50;2.00;;;14.30;99.90;;;;;;4983029;28;20488;-69
2023/11/01 07:34:22;;;;;;;2.77;1.80;;;14.20;99.90;;;;;;4968921;28;20425;-70
2023/11/01 07:36:48;;;;;;;2.00;1.80;;;14.30;99.90;;;;;;4968045;28;20435;-70
2023/11/01 07:39:14;;;;;;;3.17;1.70;;;14.20;99.90;;;;;;4975937;28;20448;-69
2023/11/01 07:41:42;;;;;;;2.03;1.87;;;14.30;99.90;;;;;;4972476;28;21364;-70
2023/11/01 07:44:13;;;;;;;3.00;2.03;;;14.30;99.90;;;;;;4932695;28;20523;-70
2023/11/01 07:46:42;;;;;;;3.43;1.47;;;14.30;99.90;;;;;;4981150;28;21399;-67
2023/11/01 07:49:10;;;;;;;2.57;2.20;;;14.30;99.90;;;;;;4963073;28;20433;-70
2023/11/01 07:51:36;;;;;;;2.30;1.67;;;14.30;99.90;;;;;;4946915;28;20211;-69
2023/11/01 07:54:09;;;;;;;2.40;2.20;;;14.30;99.90;;;;;;4962858;28;20896;-69
2023/11/01 07:56:38;;;;;;;2.03;1.83;;;14.30;99.90;;;;;;4933828;28;20430;-70
2023/11/01 07:59:09;;;;;;;2.23;1.77;;;14.20;99.90;;;;;;4970469;28;20963;-70
2023/11/01 08:01:36;;;;;;;3.20;2.57;;;14.20;99.90;;;;;;4955963;28;20502;-69
2023/11/01 08:04:05;;;;;;;2.70;2.40;;;14.30;99.90;;;;;;4974218;28;21002;-69
2023/11/01 08:06:32;;;;;;;2.63;2.00;;;14.30;99.90;;;;;;4976110;28;20441;-71
2023/11/01 08:09:00;;;;;;;2.60;2.07;;;14.30;99.90;;;;;;4992655;28;20417;-69
2023/11/01 08:11:28;;;;;;;2.60;2.30;;;14.30;99.90;;;;;;5000753;28;20987;-69
2023/11/01 08:13:57;;;;;;;2.47;1.77;;;14.30;99.90;;;;;;5002625;28;20552;-69
2023/11/01 08:16:23;;;;;;;2.13;1.97;;;14.30;99.90;;;;;;4978312;28;20483;-70
2023/11/01 08:18:49;;;;;;;2.77;2.00;;;14.30;99.90;;;;;;4980944;28;20472;-69
2023/11/01 08:21:15;;;;;;;2.93;1.83;;;14.30;99.90;;;;;;4966942;28;20524;-69
2023/11/01 08:23:45;;;;;;;4.20;2.20;;;14.30;99.90;;;;;;4971509;28;20875;-69
2023/11/01 08:26:24;;;;;;;3.03;2.17;;;14.30;99.90;;;;;;4953847;28;20445;-70
2023/11/01 08:28:50;;;;;;;3.17;2.40;;;14.30;99.90;;;;;;4943142;28;20941;-69
2023/11/01 08:31:16;;;;;;;3.37;2.33;;;14.30;99.90;;;;;;4961310;28;20473;-69
2023/11/01 08:33:42;;;;;;;2.10;1.90;;;14.30;99.90;;;;;;4965693;28;20449;-70
2023/11/01 08:36:09;;;;;;;3.47;2.20;;;14.30;99.90;;;;;;4967440;28;20457;-70
2023/11/01 08:38:35;;;;;;;2.57;2.10;;;14.30;99.90;;;;;;4965693;28;21006;-70
2023/11/01 08:41:04;;;;;;;4.23;2.10;;;14.30;99.90;;;;;;4963156;28;20493;-70
2023/11/01 08:43:32;;;;;;;1.73;1.60;;;14.30;99.90;;;;;;4981373;28;20220;-69
2023/11/01 08:45:58;;;;;;;3.20;1.97;;;14.30;99.90;;;;;;4964706;28;20483;-69
2023/11/01 08:48:25;;;;;;;3.60;1.73;;;14.30;99.90;;;;;;4977976;28;20467;-69
2023/11/01 08:50:51;;;;;;;2.43;2.23;;;14.30;99.90;;;;;;4967340;28;20445;-69
2023/11/01 08:53:21;;;;;;;3.27;2.20;;;14.30;99.90;;;;;;4957931;28;20484;-69
2023/11/01 08:55:50;;;;;;;2.73;1.97;;;14.30;99.90;;;;;;4967313;28;20433;-69
2023/11/01 08:58:16;;;;;;;2.17;1.97;;;14.30;99.90;;;;;;4945550;28;20452;-70
2023/11/01 09:00:41;;;;;;;2.60;1.87;;;14.30;99.90;;;;;;4970179;28;20460;-70
2023/11/01 09:03:12;;;;;;;2.77;1.83;;;14.30;99.90;;;;;;4969903;28;20458;-70
2023/11/01 09:05:40;;;;;;;2.60;2.07;;;14.30;99.90;;;;;;4956783;28;20529;-70
2023/11/01 09:08:07;;;;;;;2.70;2.10;;;14.30;99.90;;;;;;4942448;28;20446;-70
2023/11/01 09:10:33;;;;;;;2.87;2.43;;;14.30;99.90;;;;;;4941379;28;20487;-70
2023/11/01 09:12:59;;;;;;;2.23;2.03;;;14.30;99.90;;;;;;4957757;28;20472;-70
2023/11/01 09:15:30;;;;;;;3.00;2.67;;;14.30;99.90;;;;;;4957576;28;21009;-69
2023/11/01 09:18:01;;;;;;;3.07;2.27;;;14.40;99.90;;;;;;4957750;28;20416;-69
2023/11/01 09:20:27;;;;;;;2.93;2.50;;;14.40;99.90;;;;;;4965913;28;20495;-69
2023/11/01 09:22:56;;;;;;;2.13;1.93;;;14.40;99.90;;;;;;4969175;28;20472;-71
2023/11/01 09:25:27;;;;;;;2.80;2.00;;;14.40;99.90;;;;;;4983603;28;20439;-70
2023/11/01 09:27:53;;;;;;;3.13;2.80;;;14.40;99.90;;;;;;4983257;28;21222;-70
2023/11/01 09:30:21;;;;;;;3.37;2.60;;;14.40;99.90;;;;;;4992086;28;20885;-71
2023/11/01 09:32:49;;;;;;;5.17;2.10;;;14.40;99.90;;;;;;4977363;28;20447;-71
2023/11/01 09:35:15;;;;;;;2.30;2.10;;;14.40;99.90;;;;;;4952952;28;20473;-71
2023/11/01 09:37:45;;;;;;;3.23;2.53;;;14.40;99.90;;;;;;4960370;28;20492;-71
2023/11/01 09:40:12;;;;;;;3.00;2.10;;;14.40;99.90;;;;;;4969882;28;20479;-70
2023/11/01 09:42:41;;;;;;;3.77;2.20;;;14.40;99.90;;;;;;4963755;28;20604;-73
2023/11/01 09:45:11;;;;;;;3.93;2.40;;;14.40;99.90;;;;;;4956322;28;20526;-73
2023/11/01 09:47:41;;;;;;;2.87;2.07;;;14.40;99.90;;;;;;4977807;28;20503;-73
2023/11/01 09:50:08;;;;;;;3.20;2.90;;;14.40;99.90;;;;;;4993117;28;20452;-73
2023/11/01 09:52:35;;;;;;;4.07;2.17;;;14.40;99.90;;;;;;4977066;28;20868;-74
2023/11/01 09:55:04;;;;;;;3.93;2.27;;;14.50;99.90;;;;;;4973547;28;20438;-73
2023/11/01 09:57:36;;;;;;;5.57;2.73;;;14.40;99.90;;;;;;4969934;28;20435;-73
2023/11/01 10:00:07;;;;;;;4.00;2.50;;;14.40;99.90;;;;;;4979621;28;21198;-73
2023/11/01 10:02:34;;;;;;;5.40;2.20;;;14.40;99.90;;;;;;4946502;28;20440;-74
2023/11/01 10:05:02;;;;;;;4.17;2.60;;;14.50;99.90;;;;;;4973927;28;20534;-75
2023/11/01 10:07:33;;;;;;;6.17;2.60;;;14.50;99.90;;;;;;4976557;28;20422;-74
2023/11/01 10:10:07;;;;;;;2.53;2.00;;;14.50;99.90;;;;;;4978811;28;20443;-74
2023/11/01 10:12:38;;;;;;;4.83;2.30;;;14.50;99.90;;;;;;4985407;28;20468;-75
2023/11/01 10:15:19;;;;;;;5.33;2.20;;;14.50;99.90;;;;;;4978381;28;20444;-73
2023/11/01 10:17:45;;;;;;;3.93;2.77;;;14.50;99.90;;;;;;4994340;28;20437;-73
2023/11/01 10:20:31;;;;;;;5.97;2.07;;;14.50;99.90;;;;;;4962279;28;20873;-74
2023/11/01 10:22:57;;;;;;;5.83;2.10;;;14.50;99.90;;;;;;4979865;28;20804;-74
2023/11/01 10:25:26;;;;;;;2.77;2.17;;;14.50;99.90;;;;;;4968709;28;20435;-74
2023/11/01 10:27:55;;;;;;;2.20;1.97;;;14.50;99.90;;;;;;4981039;28;20443;-75
2023/11/01 10:30:27;;;;;;;3.70;1.90;;;14.60;99.90;;;;;;4981613;28;20441;-75
2023/11/01 10:33:01;;;;;;;3.47;2.00;;;14.60;99.90;;;;;;4996947;28;20998;-75
2023/11/01 10:35:27;;;;;;;5.10;2.43;;;14.60;99.90;;;;;;4989790;28;20431;-74
2023/11/01 10:37:58;;;;;;;3.50;2.07;;;14.60;99.90;;;;;;4981722;28;20529;-75
2023/11/01 10:40:27;;;;;;;7.73;2.50;;;14.60;99.90;;;;;;4973241;28;20501;-74
2023/11/01 10:43:02;;;;;;;2.80;2.50;;;14.60;99.90;;;;;;4979471;28;20445;-73
2023/11/01 10:45:31;;;;;;;6.83;2.00;;;14.60;99.90;;;;;;4960846;28;20429;-74
2023/11/01 10:48:02;;;;;;;3.97;2.07;;;14.70;99.90;;;;;;4943173;28;20452;-74
2023/11/01 10:50:33;;;;;;;3.20;2.03;;;14.70;99.90;;;;;;4975474;28;20512;-76
2023/11/01 10:53:03;;;;;;;5.37;2.57;;;14.70;99.90;;;;;;4984092;28;21046;-75
2023/11/01 10:55:31;;;;;;;2.53;1.93;;;14.70;99.90;;;;;;4978980;28;20525;-76
2023/11/01 10:57:57;;;;;;;3.73;2.30;;;14.70;99.90;;;;;;4984408;28;20921;-76
2023/11/01 11:00:35;;;;;;;5.40;2.20;;;14.70;99.90;;;;;;4983821;28;21082;-77
2023/11/01 11:03:15;;;;;;;4.60;2.00;;;14.70;99.90;;;;;;4976830;28;20475;-74
2023/11/01 11:05:43;;;;;;;4.27;2.10;;;14.70;99.90;;;;;;4982246;28;20457;-76
2023/11/01 11:08:10;;;;;;;5.77;1.90;;;14.70;99.90;;;;;;4977154;28;20427;-73
2023/11/01 11:10:39;;;;;;;3.13;2.10;;;14.70;99.90;;;;;;4965361;28;20410;-74
2023/11/01 11:13:18;;;;;;;5.83;2.20;;;14.70;99.90;;;;;;4948277;28;20489;-74
2023/11/01 11:15:46;;;;;;;2.97;2.30;;;14.70;99.90;;;;;;4932676;28;21162;-74
2023/11/01 11:18:18;;;;;;;5.50;2.20;;;14.70;99.90;;;;;;4979973;28;20426;-73
2023/11/01 11:20:53;;;;;;;2.87;1.87;;;14.70;99.90;;;;;;4966077;28;21282;-75
2023/11/01 11:23:30;;;;;;;5.80;2.10;;;14.70;99.90;;;;;;4980480;28;20430;-74
2023/11/01 17:27:34;;;;;;;5.23;2.80;;;15.00;99.90;;;;;;4224454;26;20484;-75
2023/11/01 17:30:04;;;;;;;3.00;2.70;;;15.00;99.90;;;;;;5003167;28;20438;-76
2023/11/01 17:32:35;;;;;;;3.03;2.73;;;15.00;99.90;;;;;;4992681;28;20503;-76
2023/11/01 17:35:10;;;;;;;3.90;2.60;;;15.00;99.90;;;;;;4967268;28;20433;-73
2023/11/01 17:37:41;;;;;;;5.30;2.70;;;15.00;99.90;;;;;;4999912;28;20761;-73
2023/11/01 17:40:13;;;;;;;5.00;2.67;;;15.00;99.90;;;;;;4994943;28;20423;-74
2023/11/01 17:42:39;;;;;;;5.10;2.53;;;15.00;99.90;;;;;;4982626;28;20466;-75
2023/11/01 17:45:09;;;;;;;2.70;2.50;;;15.00;99.90;;;;;;4997961;28;20865;-74
2023/11/01 17:47:41;;;;;;;3.00;2.70;;;15.00;99.90;;;;;;4985522;28;20425;-73
2023/11/01 17:50:10;;;;;;;2.43;2.13;;;15.00;99.90;;;;;;4999995;28;20420;-73
2023/11/01 17:52:42;;;;;;;4.27;2.40;;;15.00;99.90;;;;;;4977059;28;20885;-73
2023/11/01 17:55:16;;;;;;;2.50;2.10;;;15.00;99.90;;;;;;4970796;28;20495;-73
2023/11/01 17:57:46;;;;;;;2.20;2.10;;;15.00;99.90;;;;;;4985255;28;20787;-74
2023/11/01 18:00:26;;;;;;;3.00;2.70;;;15.00;99.90;;;;;;4987082;28;20425;-73
2023/11/01 18:02:58;;;;;;;3.60;2.30;;;15.00;99.90;;;;;;4992733;28;20448;-73
2023/11/01 18:05:40;;;;;;;2.87;2.37;;;15.00;99.90;;;;;;4992993;28;20577;-73
2023/11/01 18:08:11;;;;;;;1.90;1.80;;;15.00;99.90;;;;;;4981166;28;20440;-73
2023/11/01 18:10:47;;;;;;;2.40;1.90;;;15.00;99.90;;;;;;4982571;28;20462;-73
2023/11/01 18:13:22;;;;;;;2.93;2.73;;;15.00;99.90;;;;;;4980986;28;20749;-73
2023/11/01 18:15:54;;;;;;;2.40;2.20;;;15.00;99.90;;;;;;4993190;28;20438;-73
2023/11/01 18:18:41;;;;;;;3.17;2.70;;;15.00;99.90;;;;;;5000894;28;20452;-73
2023/11/01 18:21:21;;;;;;;4.03;2.17;;;15.00;99.90;;;;;;4997557;28;20502;-73
2023/11/01 18:23:58;;;;;;;2.47;2.27;;;15.00;99.90;;;;;;4997813;28;20448;-73
2023/11/01 18:26:29;;;;;;;1.90;1.70;;;15.00;99.90;;;;;;4998602;28;20447;-73
2023/11/01 18:29:00;;;;;;;2.60;2.23;;;15.00;99.90;;;;;;4994280;28;20539;-73
2023/11/01 18:31:34;;;;;;;2.37;1.70;;;15.00;99.90;;;;;;4991828;28;20452;-73
2023/11/01 18:34:06;;;;;;;2.70;2.43;;;15.00;99.90;;;;;;4967594;28;20610;-73
2023/11/01 18:36:52;;;;;;;2.33;2.17;;;15.00;99.90;;;;;;4985840;28;20452;-73
2023/11/01 18:39:27;;;;;;;2.80;2.00;;;15.00;99.90;;;;;;4990938;28;20872;-73
2023/11/01 18:41:55;;;;;;;2.30;2.10;;;14.90;99.90;;;;;;4987187;28;20538;-73
2023/11/01 18:44:25;;;;;;;2.77;2.57;;;15.00;99.90;;;;;;4977421;28;20422;-73
2023/11/01 18:46:59;;;;;;;1.80;1.70;;;15.00;99.90;;;;;;4994729;28;20512;-74
2023/11/01 18:50:00;;;;;;;2.20;1.90;;;15.00;99.90;;;;;;4987292;28;20454;-73
2023/11/01 18:52:29;;;;;;;4.30;2.00;;;14.90;99.90;;;;;;4989686;28;20486;-73
2023/11/01 18:54:59;;;;;;;2.10;1.90;;;15.00;99.90;;;;;;4977805;28;20541;-73
2023/11/01 18:57:28;;;;;;;3.50;2.50;;;14.90;99.90;;;;;;4997842;28;20448;-73